sensor_id;sensor_type;location;lat;lon;timestamp;pressure;altitude;pressure_sealevel;temperature;humidity
51067;BME280;37112;45.892;-123.962;2022-10-15T00:00:11;101241.19;;;15.50;81.70
51067;BME280;37112;45.892;-123.962;2022-10-15T00:02:45;101234.70;;;15.55;80.14
51067;BME280;37112;45.892;-123.962;2022-10-15T00:04:58;101237.79;;;15.59;80.58
51067;BME280;37112;45.892;-123.962;2022-10-15T00:07:12;101238.59;;;15.65;79.54
51067;BME280;37112;45.892;-123.962;2022-10-15T00:09:25;101237.03;;;15.69;79.97
51067;BME280;37112;45.892;-123.962;2022-10-15T00:11:39;101232.36;;;15.74;79.61
51067;BME280;37112;45.892;-123.962;2022-10-15T00:13:54;101233.42;;;15.67;78.22
51067;BME280;37112;45.892;-123.962;2022-10-15T00:16:10;101240.53;;;15.54;77.91
51067;BME280;37112;45.892;-123.962;2022-10-15T00:18:24;101240.67;;;15.29;77.64
51067;BME280;37112;45.892;-123.962;2022-10-15T00:20:37;101239.79;;;15.06;78.32
51067;BME280;37112;45.892;-123.962;2022-10-15T00:22:52;101236.34;;;14.96;79.15
51067;BME280;37112;45.892;-123.962;2022-10-15T00:25:08;101231.23;;;14.90;79.89
51067;BME280;37112;45.892;-123.962;2022-10-15T00:27:21;101227.85;;;14.85;79.93
51067;BME280;37112;45.892;-123.962;2022-10-15T00:29:34;101228.26;;;14.83;80.25
51067;BME280;37112;45.892;-123.962;2022-10-15T00:31:48;101225.61;;;14.87;80.96
51067;BME280;37112;45.892;-123.962;2022-10-15T00:34:02;101227.86;;;14.99;81.93
51067;BME280;37112;45.892;-123.962;2022-10-15T00:36:17;101228.41;;;15.15;82.12
51067;BME280;37112;45.892;-123.962;2022-10-15T00:38:31;101226.16;;;15.27;82.03
51067;BME280;37112;45.892;-123.962;2022-10-15T00:40:45;101224.09;;;15.40;81.94
51067;BME280;37112;45.892;-123.962;2022-10-15T00:42:58;101219.79;;;15.51;81.73
51067;BME280;37112;45.892;-123.962;2022-10-15T00:45:13;101222.38;;;15.62;81.54
51067;BME280;37112;45.892;-123.962;2022-10-15T00:47:32;101221.77;;;15.72;81.19
51067;BME280;37112;45.892;-123.962;2022-10-15T00:49:50;101222.42;;;15.79;80.97
51067;BME280;37112;45.892;-123.962;2022-10-15T00:52:09;101222.29;;;15.85;80.62
51067;BME280;37112;45.892;-123.962;2022-10-15T00:54:23;101225.14;;;15.90;80.34
51067;BME280;37112;45.892;-123.962;2022-10-15T00:56:38;101228.10;;;15.93;80.06
51067;BME280;37112;45.892;-123.962;2022-10-15T00:58:52;101221.13;;;15.95;79.85
51067;BME280;37112;45.892;-123.962;2022-10-15T01:01:07;101224.61;;;15.96;79.66
51067;BME280;37112;45.892;-123.962;2022-10-15T01:03:21;101226.40;;;15.96;79.40
51067;BME280;37112;45.892;-123.962;2022-10-15T01:05:38;101226.88;;;15.95;79.14
51067;BME280;37112;45.892;-123.962;2022-10-15T01:07:52;101227.39;;;15.91;78.81
51067;BME280;37112;45.892;-123.962;2022-10-15T01:10:08;101230.66;;;15.85;78.58
51067;BME280;37112;45.892;-123.962;2022-10-15T01:12:30;101229.06;;;15.78;78.26
51067;BME280;37112;45.892;-123.962;2022-10-15T01:14:53;101233.58;;;15.67;77.87
51067;BME280;37112;45.892;-123.962;2022-10-15T01:17:17;101231.89;;;15.52;77.56
51067;BME280;37112;45.892;-123.962;2022-10-15T01:19:48;101234.60;;;15.36;77.24
51067;BME280;37112;45.892;-123.962;2022-10-15T01:22:13;101242.01;;;15.19;77.33
51067;BME280;37112;45.892;-123.962;2022-10-15T01:25:01;101242.51;;;15.09;77.51
51067;BME280;37112;45.892;-123.962;2022-10-15T01:27:37;101240.16;;;14.93;77.47
51067;BME280;37112;45.892;-123.962;2022-10-15T01:32:27;101232.95;;;14.68;77.73
51067;BME280;37112;45.892;-123.962;2022-10-15T01:34:46;101236.96;;;14.58;78.01
51067;BME280;37112;45.892;-123.962;2022-10-15T01:37:07;101235.48;;;14.51;78.21
51067;BME280;37112;45.892;-123.962;2022-10-15T01:39:26;101227.80;;;14.44;78.27
51067;BME280;37112;45.892;-123.962;2022-10-15T01:41:43;101225.23;;;14.37;78.41
51067;BME280;37112;45.892;-123.962;2022-10-15T01:44:02;101225.03;;;14.33;78.65
51067;BME280;37112;45.892;-123.962;2022-10-15T01:46:38;101221.52;;;14.30;78.71
51067;BME280;37112;45.892;-123.962;2022-10-15T01:49:00;101209.14;;;14.26;78.92
51067;BME280;37112;45.892;-123.962;2022-10-15T01:51:18;101205.36;;;14.24;79.10
51067;BME280;37112;45.892;-123.962;2022-10-15T01:53:40;101207.27;;;14.22;79.08
51067;BME280;37112;45.892;-123.962;2022-10-15T01:55:56;101205.86;;;14.19;79.13
51067;BME280;37112;45.892;-123.962;2022-10-15T01:58:11;101211.88;;;14.18;79.23
51067;BME280;37112;45.892;-123.962;2022-10-15T02:00:28;101216.81;;;14.17;79.56
51067;BME280;37112;45.892;-123.962;2022-10-15T02:02:42;101219.27;;;14.14;79.89
51067;BME280;37112;45.892;-123.962;2022-10-15T02:04:56;101222.70;;;14.02;79.24
51067;BME280;37112;45.892;-123.962;2022-10-15T02:07:12;101223.92;;;13.81;78.76
51067;BME280;37112;45.892;-123.962;2022-10-15T02:09:34;101221.41;;;13.61;78.75
51067;BME280;37112;45.892;-123.962;2022-10-15T02:12:02;101213.95;;;13.48;79.16
51067;BME280;37112;45.892;-123.962;2022-10-15T02:14:23;101218.45;;;13.41;79.55
51067;BME280;37112;45.892;-123.962;2022-10-15T02:16:44;101216.77;;;13.29;80.40
51067;BME280;37112;45.892;-123.962;2022-10-15T02:19:03;101211.63;;;13.16;80.66
51067;BME280;37112;45.892;-123.962;2022-10-15T02:21:24;101209.23;;;13.04;80.77
51067;BME280;37112;45.892;-123.962;2022-10-15T02:23:40;101217.27;;;12.98;81.03
51067;BME280;37112;45.892;-123.962;2022-10-15T02:25:57;101215.69;;;12.96;81.40
51067;BME280;37112;45.892;-123.962;2022-10-15T02:28:12;101218.02;;;12.93;81.75
51067;BME280;37112;45.892;-123.962;2022-10-15T02:30:28;101216.38;;;12.91;81.92
51067;BME280;37112;45.892;-123.962;2022-10-15T02:32:47;101214.84;;;12.90;82.03
51067;BME280;37112;45.892;-123.962;2022-10-15T02:35:03;101211.10;;;12.90;82.25
51067;BME280;37112;45.892;-123.962;2022-10-15T02:37:23;101207.80;;;12.91;82.45
51067;BME280;37112;45.892;-123.962;2022-10-15T02:39:40;101206.39;;;12.91;82.19
51067;BME280;37112;45.892;-123.962;2022-10-15T02:41:54;101208.49;;;12.89;82.06
51067;BME280;37112;45.892;-123.962;2022-10-15T02:44:08;101207.42;;;12.89;82.15
51067;BME280;37112;45.892;-123.962;2022-10-15T02:46:25;101210.33;;;12.88;82.02
51067;BME280;37112;45.892;-123.962;2022-10-15T02:48:38;101222.61;;;12.89;82.25
51067;BME280;37112;45.892;-123.962;2022-10-15T02:50:52;101220.92;;;12.87;82.25
51067;BME280;37112;45.892;-123.962;2022-10-15T02:53:06;101209.66;;;12.85;82.30
51067;BME280;37112;45.892;-123.962;2022-10-15T02:55:19;101204.88;;;12.85;82.43
51067;BME280;37112;45.892;-123.962;2022-10-15T02:57:33;101202.80;;;12.84;82.50
51067;BME280;37112;45.892;-123.962;2022-10-15T02:59:47;101208.83;;;12.85;82.57
51067;BME280;37112;45.892;-123.962;2022-10-15T03:02:01;101222.15;;;12.85;82.68
51067;BME280;37112;45.892;-123.962;2022-10-15T03:04:15;101221.31;;;12.84;82.50
51067;BME280;37112;45.892;-123.962;2022-10-15T03:06:29;101218.45;;;12.81;82.25
51067;BME280;37112;45.892;-123.962;2022-10-15T03:08:44;101217.27;;;12.78;82.11
51067;BME280;37112;45.892;-123.962;2022-10-15T03:11:00;101217.73;;;12.74;82.08
51067;BME280;37112;45.892;-123.962;2022-10-15T03:13:13;101209.92;;;12.68;82.16
51067;BME280;37112;45.892;-123.962;2022-10-15T03:15:30;101204.73;;;12.66;82.30
51067;BME280;37112;45.892;-123.962;2022-10-15T03:17:44;101208.45;;;12.64;82.45
51067;BME280;37112;45.892;-123.962;2022-10-15T03:19:58;101209.27;;;12.63;82.48
51067;BME280;37112;45.892;-123.962;2022-10-15T03:22:12;101215.58;;;12.64;82.61
51067;BME280;37112;45.892;-123.962;2022-10-15T03:24:33;101212.45;;;12.66;82.57
51067;BME280;37112;45.892;-123.962;2022-10-15T03:26:46;101210.79;;;12.64;82.47
51067;BME280;37112;45.892;-123.962;2022-10-15T03:29:00;101216.77;;;12.62;82.48
51067;BME280;37112;45.892;-123.962;2022-10-15T03:31:22;101218.45;;;12.61;82.56
51067;BME280;37112;45.892;-123.962;2022-10-15T03:33:38;101214.74;;;12.61;82.44
51067;BME280;37112;45.892;-123.962;2022-10-15T03:35:51;101205.80;;;12.58;82.32
51067;BME280;37112;45.892;-123.962;2022-10-15T03:38:06;101200.45;;;12.53;82.15
51067;BME280;37112;45.892;-123.962;2022-10-15T03:40:19;101205.33;;;12.49;82.09
51067;BME280;37112;45.892;-123.962;2022-10-15T03:42:35;101207.41;;;12.45;82.10
51067;BME280;37112;45.892;-123.962;2022-10-15T03:44:50;101200.30;;;12.42;82.17
51067;BME280;37112;45.892;-123.962;2022-10-15T03:47:20;101198.92;;;12.39;82.24
51067;BME280;37112;45.892;-123.962;2022-10-15T03:49:34;101201.76;;;12.36;82.22
51067;BME280;37112;45.892;-123.962;2022-10-15T03:51:48;101199.11;;;12.33;82.24
51067;BME280;37112;45.892;-123.962;2022-10-15T03:54:01;101197.31;;;12.31;82.24
51067;BME280;37112;45.892;-123.962;2022-10-15T03:56:20;101189.96;;;12.29;82.34
51067;BME280;37112;45.892;-123.962;2022-10-15T03:58:35;101184.15;;;12.25;82.31
51067;BME280;37112;45.892;-123.962;2022-10-15T04:00:52;101177.30;;;12.22;82.32
51067;BME280;37112;45.892;-123.962;2022-10-15T04:03:06;101170.71;;;12.19;82.39
51067;BME280;37112;45.892;-123.962;2022-10-15T04:05:19;101175.18;;;12.16;82.61
51067;BME280;37112;45.892;-123.962;2022-10-15T04:07:37;101182.48;;;12.13;82.67
51067;BME280;37112;45.892;-123.962;2022-10-15T04:09:52;101178.50;;;12.12;82.82
51067;BME280;37112;45.892;-123.962;2022-10-15T04:12:16;101175.05;;;12.10;82.90
51067;BME280;37112;45.892;-123.962;2022-10-15T04:14:30;101170.72;;;12.09;82.95
51067;BME280;37112;45.892;-123.962;2022-10-15T04:16:44;101172.47;;;12.06;83.00
51067;BME280;37112;45.892;-123.962;2022-10-15T04:19:02;101168.48;;;12.04;83.10
51067;BME280;37112;45.892;-123.962;2022-10-15T04:21:20;101169.13;;;12.03;83.20
51067;BME280;37112;45.892;-123.962;2022-10-15T04:23:37;101163.48;;;12.02;83.38
51067;BME280;37112;45.892;-123.962;2022-10-15T04:26:07;101162.79;;;12.02;83.52
51067;BME280;37112;45.892;-123.962;2022-10-15T04:28:20;101169.49;;;12.00;83.44
51067;BME280;37112;45.892;-123.962;2022-10-15T04:30:34;101167.79;;;11.99;83.78
51067;BME280;37112;45.892;-123.962;2022-10-15T04:32:52;101169.61;;;11.98;83.95
51067;BME280;37112;45.892;-123.962;2022-10-15T04:35:07;101176.86;;;11.99;84.07
51067;BME280;37112;45.892;-123.962;2022-10-15T04:37:39;101166.91;;;11.96;83.88
51067;BME280;37112;45.892;-123.962;2022-10-15T04:39:52;101166.38;;;11.93;83.80
51067;BME280;37112;45.892;-123.962;2022-10-15T04:42:05;101171.38;;;11.90;83.81
51067;BME280;37112;45.892;-123.962;2022-10-15T04:44:19;101172.15;;;11.87;83.73
51067;BME280;37112;45.892;-123.962;2022-10-15T04:46:39;101176.20;;;11.85;83.92
51067;BME280;37112;45.892;-123.962;2022-10-15T04:49:24;101180.54;;;11.84;84.05
51067;BME280;37112;45.892;-123.962;2022-10-15T04:51:38;101180.94;;;11.83;84.12
51067;BME280;37112;45.892;-123.962;2022-10-15T04:53:55;101177.36;;;11.80;84.16
51067;BME280;37112;45.892;-123.962;2022-10-15T04:56:12;101180.35;;;11.78;84.15
51067;BME280;37112;45.892;-123.962;2022-10-15T04:58:27;101181.96;;;11.75;84.43
51067;BME280;37112;45.892;-123.962;2022-10-15T05:00:41;101184.59;;;11.72;84.47
51067;BME280;37112;45.892;-123.962;2022-10-15T05:03:20;101181.40;;;11.72;84.75
51067;BME280;37112;45.892;-123.962;2022-10-15T05:05:44;101188.05;;;11.74;85.16
51067;BME280;37112;45.892;-123.962;2022-10-15T05:08:01;101189.34;;;11.77;85.52
51067;BME280;37112;45.892;-123.962;2022-10-15T05:10:26;101192.52;;;11.80;86.70
51067;BME280;37112;45.892;-123.962;2022-10-15T05:12:43;101185.73;;;11.80;86.46
51067;BME280;37112;45.892;-123.962;2022-10-15T05:15:10;101181.48;;;11.80;86.36
51067;BME280;37112;45.892;-123.962;2022-10-15T05:17:24;101180.63;;;11.79;86.31
51067;BME280;37112;45.892;-123.962;2022-10-15T05:19:38;101184.52;;;11.79;86.41
51067;BME280;37112;45.892;-123.962;2022-10-15T05:21:58;101181.14;;;11.79;86.56
51067;BME280;37112;45.892;-123.962;2022-10-15T05:24:12;101178.06;;;11.78;86.64
51067;BME280;37112;45.892;-123.962;2022-10-15T05:26:40;101172.80;;;11.76;86.60
51067;BME280;37112;45.892;-123.962;2022-10-15T05:28:57;101172.14;;;11.76;86.70
51067;BME280;37112;45.892;-123.962;2022-10-15T05:31:15;101166.84;;;11.75;86.67
51067;BME280;37112;45.892;-123.962;2022-10-15T05:33:37;101165.71;;;11.73;86.57
51067;BME280;37112;45.892;-123.962;2022-10-15T05:35:50;101162.91;;;11.69;86.29
51067;BME280;37112;45.892;-123.962;2022-10-15T05:38:05;101161.67;;;11.67;86.19
51067;BME280;37112;45.892;-123.962;2022-10-15T05:40:20;101155.95;;;11.64;86.12
51067;BME280;37112;45.892;-123.962;2022-10-15T05:42:46;101151.86;;;11.62;86.13
51067;BME280;37112;45.892;-123.962;2022-10-15T05:45:10;101148.07;;;11.60;86.20
51067;BME280;37112;45.892;-123.962;2022-10-15T05:47:23;101144.92;;;11.59;86.28
51067;BME280;37112;45.892;-123.962;2022-10-15T05:49:53;101148.09;;;11.57;86.04
51067;BME280;37112;45.892;-123.962;2022-10-15T05:52:11;101143.56;;;11.53;85.99
51067;BME280;37112;45.892;-123.962;2022-10-15T05:54:42;101145.67;;;11.51;85.96
51067;BME280;37112;45.892;-123.962;2022-10-15T05:56:56;101146.04;;;11.48;85.90
51067;BME280;37112;45.892;-123.962;2022-10-15T05:59:09;101143.20;;;11.45;86.00
51067;BME280;37112;45.892;-123.962;2022-10-15T06:01:22;101139.81;;;11.42;85.98
51067;BME280;37112;45.892;-123.962;2022-10-15T06:03:36;101135.31;;;11.40;86.18
51067;BME280;37112;45.892;-123.962;2022-10-15T06:05:50;101132.86;;;11.39;86.32
51067;BME280;37112;45.892;-123.962;2022-10-15T06:08:03;101131.47;;;11.39;86.52
51067;BME280;37112;45.892;-123.962;2022-10-15T06:10:17;101126.71;;;11.38;86.74
51067;BME280;37112;45.892;-123.962;2022-10-15T06:12:31;101126.08;;;11.40;86.93
51067;BME280;37112;45.892;-123.962;2022-10-15T06:14:44;101122.13;;;11.40;86.85
51067;BME280;37112;45.892;-123.962;2022-10-15T06:16:57;101123.20;;;11.40;86.91
51067;BME280;37112;45.892;-123.962;2022-10-15T06:19:11;101125.27;;;11.41;86.98
51067;BME280;37112;45.892;-123.962;2022-10-15T06:21:24;101124.84;;;11.42;87.01
51067;BME280;37112;45.892;-123.962;2022-10-15T06:23:37;101124.95;;;11.43;87.03
51067;BME280;37112;45.892;-123.962;2022-10-15T06:25:51;101122.60;;;11.44;87.20
51067;BME280;37112;45.892;-123.962;2022-10-15T06:28:05;101118.98;;;11.45;87.22
51067;BME280;37112;45.892;-123.962;2022-10-15T06:30:25;101114.03;;;11.47;87.58
51067;BME280;37112;45.892;-123.962;2022-10-15T06:32:39;101112.20;;;11.56;88.46
51067;BME280;37112;45.892;-123.962;2022-10-15T06:34:52;101112.45;;;11.71;89.34
51067;BME280;37112;45.892;-123.962;2022-10-15T06:37:05;101114.17;;;11.86;89.45
51067;BME280;37112;45.892;-123.962;2022-10-15T06:39:19;101112.59;;;11.96;89.19
51067;BME280;37112;45.892;-123.962;2022-10-15T06:41:32;101109.22;;;12.07;89.26
51067;BME280;37112;45.892;-123.962;2022-10-15T06:43:45;101106.19;;;12.18;89.03
51067;BME280;37112;45.892;-123.962;2022-10-15T06:46:02;101099.86;;;12.26;88.74
51067;BME280;37112;45.892;-123.962;2022-10-15T06:48:15;101109.54;;;12.36;88.55
51067;BME280;37112;45.892;-123.962;2022-10-15T06:50:29;101102.50;;;12.42;87.88
51067;BME280;37112;45.892;-123.962;2022-10-15T06:52:42;101102.95;;;12.47;87.40
51067;BME280;37112;45.892;-123.962;2022-10-15T06:54:55;101104.48;;;12.50;87.01
51067;BME280;37112;45.892;-123.962;2022-10-15T06:57:08;101102.78;;;12.57;87.02
51067;BME280;37112;45.892;-123.962;2022-10-15T06:59:22;101098.67;;;12.65;86.83
51067;BME280;37112;45.892;-123.962;2022-10-15T07:01:36;101100.35;;;12.73;86.70
51067;BME280;37112;45.892;-123.962;2022-10-15T07:03:53;101099.07;;;12.79;86.04
51067;BME280;37112;45.892;-123.962;2022-10-15T07:06:07;101096.00;;;12.82;85.39
51067;BME280;37112;45.892;-123.962;2022-10-15T07:08:21;101090.61;;;12.82;84.86
51067;BME280;37112;45.892;-123.962;2022-10-15T07:10:34;101085.07;;;12.83;84.53
51067;BME280;37112;45.892;-123.962;2022-10-15T07:12:47;101077.66;;;12.84;83.89
51067;BME280;37112;45.892;-123.962;2022-10-15T07:15:00;101072.98;;;12.92;84.44
51067;BME280;37112;45.892;-123.962;2022-10-15T07:17:14;101068.13;;;12.98;84.00
51067;BME280;37112;45.892;-123.962;2022-10-15T07:19:27;101066.60;;;13.04;83.90
51067;BME280;37112;45.892;-123.962;2022-10-15T07:21:40;101061.75;;;13.07;83.37
51067;BME280;37112;45.892;-123.962;2022-10-15T07:23:55;101065.02;;;13.09;82.84
51067;BME280;37112;45.892;-123.962;2022-10-15T07:26:09;101059.66;;;13.14;83.07
51067;BME280;37112;45.892;-123.962;2022-10-15T07:28:22;101057.77;;;13.23;83.08
51067;BME280;37112;45.892;-123.962;2022-10-15T07:30:35;101058.65;;;13.31;82.50
51067;BME280;37112;45.892;-123.962;2022-10-15T07:32:49;101058.65;;;13.38;82.10
51067;BME280;37112;45.892;-123.962;2022-10-15T07:35:02;101056.27;;;13.55;82.14
51067;BME280;37112;45.892;-123.962;2022-10-15T07:37:15;101050.63;;;13.78;81.62
51067;BME280;37112;45.892;-123.962;2022-10-15T07:39:28;101049.70;;;14.02;81.14
51067;BME280;37112;45.892;-123.962;2022-10-15T07:41:46;101046.72;;;14.15;79.91
51067;BME280;37112;45.892;-123.962;2022-10-15T07:43:59;101046.61;;;14.23;79.04
51067;BME280;37112;45.892;-123.962;2022-10-15T07:46:12;101044.05;;;14.34;78.63
51067;BME280;37112;45.892;-123.962;2022-10-15T07:48:26;101050.05;;;14.41;77.95
51067;BME280;37112;45.892;-123.962;2022-10-15T07:50:39;101048.70;;;14.47;77.43
51067;BME280;37112;45.892;-123.962;2022-10-15T07:52:52;101052.14;;;14.54;76.72
51067;BME280;37112;45.892;-123.962;2022-10-15T07:55:07;101054.42;;;14.63;75.74
51067;BME280;37112;45.892;-123.962;2022-10-15T07:57:21;101052.13;;;14.67;75.62
51067;BME280;37112;45.892;-123.962;2022-10-15T07:59:34;101051.92;;;14.67;75.39
51067;BME280;37112;45.892;-123.962;2022-10-15T08:01:48;101048.15;;;14.68;74.91
51067;BME280;37112;45.892;-123.962;2022-10-15T08:04:02;101045.19;;;14.74;74.84
51067;BME280;37112;45.892;-123.962;2022-10-15T08:06:15;101044.13;;;14.80;74.45
51067;BME280;37112;45.892;-123.962;2022-10-15T08:08:30;101042.61;;;14.86;74.04
51067;BME280;37112;45.892;-123.962;2022-10-15T08:10:43;101041.95;;;14.92;73.72
51067;BME280;37112;45.892;-123.962;2022-10-15T08:12:56;101041.20;;;14.94;73.24
51067;BME280;37112;45.892;-123.962;2022-10-15T08:15:10;101035.23;;;14.99;73.02
51067;BME280;37112;45.892;-123.962;2022-10-15T08:17:24;101033.02;;;15.09;71.48
51067;BME280;37112;45.892;-123.962;2022-10-15T08:19:37;101036.77;;;15.24;71.29
51067;BME280;37112;45.892;-123.962;2022-10-15T08:21:50;101035.16;;;15.29;71.31
51067;BME280;37112;45.892;-123.962;2022-10-15T08:24:03;101035.19;;;15.38;70.36
51067;BME280;37112;45.892;-123.962;2022-10-15T08:26:17;101032.34;;;15.50;70.65
51067;BME280;37112;45.892;-123.962;2022-10-15T08:28:30;101030.88;;;15.57;69.46
51067;BME280;37112;45.892;-123.962;2022-10-15T08:30:45;101031.88;;;15.69;67.63
51067;BME280;37112;45.892;-123.962;2022-10-15T08:32:58;101030.90;;;15.80;67.81
51067;BME280;37112;45.892;-123.962;2022-10-15T08:35:11;101029.79;;;15.93;66.84
51067;BME280;37112;45.892;-123.962;2022-10-15T08:37:25;101029.90;;;16.03;66.63
51067;BME280;37112;45.892;-123.962;2022-10-15T08:39:38;101025.57;;;16.05;66.49
51067;BME280;37112;45.892;-123.962;2022-10-15T08:41:53;101023.14;;;16.04;65.58
51067;BME280;37112;45.892;-123.962;2022-10-15T08:44:11;101024.94;;;16.02;65.62
51067;BME280;37112;45.892;-123.962;2022-10-15T08:46:32;101023.91;;;15.99;65.00
51067;BME280;37112;45.892;-123.962;2022-10-15T08:48:48;101025.04;;;15.99;65.04
51067;BME280;37112;45.892;-123.962;2022-10-15T08:51:04;101021.67;;;16.02;64.06
51067;BME280;37112;45.892;-123.962;2022-10-15T08:53:22;101017.39;;;16.14;64.08
51067;BME280;37112;45.892;-123.962;2022-10-15T08:55:38;101018.77;;;16.32;63.30
51067;BME280;37112;45.892;-123.962;2022-10-15T08:57:55;101020.73;;;16.42;62.85
51067;BME280;37112;45.892;-123.962;2022-10-15T09:00:18;101016.98;;;16.47;62.80
51067;BME280;37112;45.892;-123.962;2022-10-15T09:02:36;101018.02;;;16.42;62.26
51067;BME280;37112;45.892;-123.962;2022-10-15T09:04:57;101016.09;;;16.46;62.17
51067;BME280;37112;45.892;-123.962;2022-10-15T09:07:18;101019.75;;;16.58;62.07
51067;BME280;37112;45.892;-123.962;2022-10-15T09:09:41;101021.95;;;16.67;60.26
51067;BME280;37112;45.892;-123.962;2022-10-15T09:12:02;101021.02;;;16.82;59.78
51067;BME280;37112;45.892;-123.962;2022-10-15T09:14:18;101023.91;;;16.98;58.74
51067;BME280;37112;45.892;-123.962;2022-10-15T09:16:34;101023.75;;;17.09;59.01
51067;BME280;37112;45.892;-123.962;2022-10-15T09:18:50;101021.85;;;17.16;57.61
51067;BME280;37112;45.892;-123.962;2022-10-15T09:21:06;101024.13;;;17.29;57.46
51067;BME280;37112;45.892;-123.962;2022-10-15T09:23:22;101023.46;;;17.36;57.90
51067;BME280;37112;45.892;-123.962;2022-10-15T09:25:37;101021.88;;;17.40;56.59
51067;BME280;37112;45.892;-123.962;2022-10-15T09:27:56;101016.78;;;17.46;56.34
51067;BME280;37112;45.892;-123.962;2022-10-15T09:32:54;101009.27;;;17.64;55.43
51067;BME280;37112;45.892;-123.962;2022-10-15T09:35:16;101004.10;;;17.69;54.93
51067;BME280;37112;45.892;-123.962;2022-10-15T09:37:34;101002.80;;;17.73;54.60
51067;BME280;37112;45.892;-123.962;2022-10-15T09:40:00;101003.60;;;17.78;53.48
51067;BME280;37112;45.892;-123.962;2022-10-15T09:42:22;101008.96;;;17.85;53.32
51067;BME280;37112;45.892;-123.962;2022-10-15T09:44:41;101011.40;;;17.91;53.89
51067;BME280;37112;45.892;-123.962;2022-10-15T09:46:54;101008.60;;;17.89;53.22
51067;BME280;37112;45.892;-123.962;2022-10-15T09:49:10;101009.31;;;17.89;52.93
51067;BME280;37112;45.892;-123.962;2022-10-15T09:51:35;101012.04;;;17.92;52.51
51067;BME280;37112;45.892;-123.962;2022-10-15T09:53:58;101004.38;;;17.89;52.55
51067;BME280;37112;45.892;-123.962;2022-10-15T09:56:17;101006.21;;;17.84;52.30
51067;BME280;37112;45.892;-123.962;2022-10-15T09:58:36;101003.69;;;17.84;51.74
51067;BME280;37112;45.892;-123.962;2022-10-15T10:01:01;101000.70;;;17.87;51.69
51067;BME280;37112;45.892;-123.962;2022-10-15T10:03:16;100993.54;;;17.88;51.88
51067;BME280;37112;45.892;-123.962;2022-10-15T10:05:32;100993.80;;;17.87;52.73
51067;BME280;37112;45.892;-123.962;2022-10-15T10:07:48;100993.62;;;17.82;52.85
51067;BME280;37112;45.892;-123.962;2022-10-15T10:10:03;100992.23;;;17.75;52.90
51067;BME280;37112;45.892;-123.962;2022-10-15T10:12:22;100991.61;;;17.63;53.86
51067;BME280;37112;45.892;-123.962;2022-10-15T10:14:39;100992.96;;;17.40;54.14
51067;BME280;37112;45.892;-123.962;2022-10-15T10:17:06;100995.85;;;17.14;54.70
51067;BME280;37112;45.892;-123.962;2022-10-15T10:19:20;100998.88;;;16.85;55.11
51067;BME280;37112;45.892;-123.962;2022-10-15T10:21:36;100996.63;;;16.59;55.58
51067;BME280;37112;45.892;-123.962;2022-10-15T10:23:51;101001.87;;;16.36;55.91
51067;BME280;37112;45.892;-123.962;2022-10-15T10:26:05;101001.12;;;16.16;56.37
51067;BME280;37112;45.892;-123.962;2022-10-15T10:28:24;100999.84;;;16.02;56.46
51067;BME280;37112;45.892;-123.962;2022-10-15T10:30:41;101001.66;;;15.96;56.69
51067;BME280;37112;45.892;-123.962;2022-10-15T10:33:00;100999.23;;;15.95;56.80
51067;BME280;37112;45.892;-123.962;2022-10-15T10:35:22;101000.20;;;15.96;56.96
51067;BME280;37112;45.892;-123.962;2022-10-15T10:37:44;100996.16;;;15.95;57.06
51067;BME280;37112;45.892;-123.962;2022-10-15T10:39:59;100994.67;;;15.92;56.81
51067;BME280;37112;45.892;-123.962;2022-10-15T10:42:27;100991.80;;;15.94;56.59
51067;BME280;37112;45.892;-123.962;2022-10-15T10:44:44;100990.90;;;16.06;56.47
51067;BME280;37112;45.892;-123.962;2022-10-15T10:47:11;100989.42;;;16.19;56.52
51067;BME280;37112;45.892;-123.962;2022-10-15T10:49:35;100981.01;;;16.33;55.79
51067;BME280;37112;45.892;-123.962;2022-10-15T10:51:52;100982.22;;;16.50;54.37
51067;BME280;37112;45.892;-123.962;2022-10-15T10:54:05;100982.02;;;16.69;54.67
51067;BME280;37112;45.892;-123.962;2022-10-15T10:56:27;100985.98;;;16.78;54.73
51067;BME280;37112;45.892;-123.962;2022-10-15T10:58:42;100983.10;;;16.85;54.84
51067;BME280;37112;45.892;-123.962;2022-10-15T11:00:55;100980.29;;;16.90;54.79
51067;BME280;37112;45.892;-123.962;2022-10-15T11:03:22;100981.65;;;16.93;54.62
51067;BME280;37112;45.892;-123.962;2022-10-15T11:05:41;100980.46;;;16.94;54.25
51067;BME280;37112;45.892;-123.962;2022-10-15T11:08:02;100980.33;;;17.02;54.50
51067;BME280;37112;45.892;-123.962;2022-10-15T11:10:23;100979.54;;;17.02;54.29
51067;BME280;37112;45.892;-123.962;2022-10-15T11:12:53;100977.61;;;17.00;54.06
51067;BME280;37112;45.892;-123.962;2022-10-15T11:15:23;100973.05;;;17.03;54.05
51067;BME280;37112;45.892;-123.962;2022-10-15T11:17:46;100972.77;;;17.04;54.17
51067;BME280;37112;45.892;-123.962;2022-10-15T11:20:05;100972.48;;;17.03;53.90
51067;BME280;37112;45.892;-123.962;2022-10-15T11:22:51;100974.29;;;17.07;53.81
51067;BME280;37112;45.892;-123.962;2022-10-15T11:25:13;100969.72;;;17.10;53.48
51067;BME280;37112;45.892;-123.962;2022-10-15T11:27:43;100963.08;;;17.17;53.91
51067;BME280;37112;45.892;-123.962;2022-10-15T11:30:06;100964.33;;;17.20;54.27
51067;BME280;37112;45.892;-123.962;2022-10-15T11:32:33;100961.34;;;17.17;54.07
51067;BME280;37112;45.892;-123.962;2022-10-15T11:35:25;100960.72;;;17.12;54.30